sensor_id;sensor_type;location;lat;lon;timestamp;P1;durP1;ratioP1;P2;durP2;ratioP2
25639;SDS011;13497;48.322;16.204;2023-06-26T00:00:43;1.73;;;1.50;;
25639;SDS011;13497;48.322;16.204;2023-06-26T00:03:09;2.37;;;1.83;;
25639;SDS011;13497;48.322;16.204;2023-06-26T00:05:38;1.67;;;1.50;;
25639;SDS011;13497;48.322;16.204;2023-06-26T00:08:04;2.83;;;1.77;;
25639;SDS011;13497;48.322;16.204;2023-06-26T00:10:30;3.38;;;1.60;;
25639;SDS011;13497;48.322;16.204;2023-06-26T00:12:56;1.63;;;1.30;;
25639;SDS011;13497;48.322;16.204;2023-06-26T00:15:22;1.37;;;1.10;;
25639;SDS011;13497;48.322;16.204;2023-06-26T00:17:47;1.90;;;1.33;;
25639;SDS011;13497;48.322;16.204;2023-06-26T00:20:13;5.45;;;1.38;;
25639;SDS011;13497;48.322;16.204;2023-06-26T00:22:39;1.77;;;1.52;;
25639;SDS011;13497;48.322;16.204;2023-06-26T00:25:08;1.42;;;1.27;;
25639;SDS011;13497;48.322;16.204;2023-06-26T00:27:34;2.40;;;1.50;;
25639;SDS011;13497;48.322;16.204;2023-06-26T00:29:59;2.00;;;1.30;;
25639;SDS011;13497;48.322;16.204;2023-06-26T00:32:25;1.80;;;1.40;;
25639;SDS011;13497;48.322;16.204;2023-06-26T00:34:50;2.15;;;1.50;;
25639;SDS011;13497;48.322;16.204;2023-06-26T00:37:17;4.82;;;1.92;;
25639;SDS011;13497;48.322;16.204;2023-06-26T00:39:43;2.07;;;1.70;;
25639;SDS011;13497;48.322;16.204;2023-06-26T00:42:08;1.60;;;1.33;;
25639;SDS011;13497;48.322;16.204;2023-06-26T00:44:34;2.00;;;1.60;;
25639;SDS011;13497;48.322;16.204;2023-06-26T00:46:59;1.20;;;1.10;;
25639;SDS011;13497;48.322;16.204;2023-06-26T00:49:26;2.30;;;1.40;;
25639;SDS011;13497;48.322;16.204;2023-06-26T00:51:52;2.80;;;1.50;;
25639;SDS011;13497;48.322;16.204;2023-06-26T00:54:18;1.30;;;1.13;;
25639;SDS011;13497;48.322;16.204;2023-06-26T00:56:47;1.88;;;1.60;;
25639;SDS011;13497;48.322;16.204;2023-06-26T00:59:13;1.15;;;1.05;;
25639;SDS011;13497;48.322;16.204;2023-06-26T01:01:39;1.85;;;1.17;;
25639;SDS011;13497;48.322;16.204;2023-06-26T01:04:05;2.27;;;1.37;;
25639;SDS011;13497;48.322;16.204;2023-06-26T01:06:30;2.55;;;1.58;;
25639;SDS011;13497;48.322;16.204;2023-06-26T01:09:00;1.83;;;1.38;;
25639;SDS011;13497;48.322;16.204;2023-06-26T01:11:27;4.10;;;1.52;;
25639;SDS011;13497;48.322;16.204;2023-06-26T01:13:53;1.27;;;1.17;;
25639;SDS011;13497;48.322;16.204;2023-06-26T01:16:21;1.45;;;1.23;;
25639;SDS011;13497;48.322;16.204;2023-06-26T01:18:48;2.90;;;1.67;;
25639;SDS011;13497;48.322;16.204;2023-06-26T01:21:15;2.75;;;1.73;;
25639;SDS011;13497;48.322;16.204;2023-06-26T01:23:53;1.58;;;1.25;;
25639;SDS011;13497;48.322;16.204;2023-06-26T01:26:23;2.00;;;1.40;;
25639;SDS011;13497;48.322;16.204;2023-06-26T01:28:51;2.10;;;1.10;;
25639;SDS011;13497;48.322;16.204;2023-06-26T01:31:18;1.45;;;1.15;;
25639;SDS011;13497;48.322;16.204;2023-06-26T01:33:44;2.20;;;1.52;;
25639;SDS011;13497;48.322;16.204;2023-06-26T01:36:11;1.27;;;1.17;;
25639;SDS011;13497;48.322;16.204;2023-06-26T01:38:37;2.20;;;1.30;;
25639;SDS011;13497;48.322;16.204;2023-06-26T01:41:03;1.35;;;1.25;;
25639;SDS011;13497;48.322;16.204;2023-06-26T01:46:18;2.53;;;1.48;;
25639;SDS011;13497;48.322;16.204;2023-06-26T01:48:47;1.50;;;1.40;;
25639;SDS011;13497;48.322;16.204;2023-06-26T01:51:20;1.90;;;1.30;;
25639;SDS011;13497;48.322;16.204;2023-06-26T01:53:52;1.95;;;1.58;;
25639;SDS011;13497;48.322;16.204;2023-06-26T01:56:21;1.40;;;1.27;;
25639;SDS011;13497;48.322;16.204;2023-06-26T01:58:49;3.33;;;1.60;;
25639;SDS011;13497;48.322;16.204;2023-06-26T02:01:19;2.10;;;1.55;;
25639;SDS011;13497;48.322;16.204;2023-06-26T02:03:46;1.13;;;1.02;;
25639;SDS011;13497;48.322;16.204;2023-06-26T02:06:12;2.17;;;1.52;;
25639;SDS011;13497;48.322;16.204;2023-06-26T02:08:38;3.97;;;1.80;;
25639;SDS011;13497;48.322;16.204;2023-06-26T02:11:03;1.87;;;1.50;;
25639;SDS011;13497;48.322;16.204;2023-06-26T02:13:29;1.90;;;1.63;;
25639;SDS011;13497;48.322;16.204;2023-06-26T02:15:54;1.90;;;1.50;;
25639;SDS011;13497;48.322;16.204;2023-06-26T02:18:20;2.00;;;1.43;;
25639;SDS011;13497;48.322;16.204;2023-06-26T02:20:47;1.30;;;1.15;;
25639;SDS011;13497;48.322;16.204;2023-06-26T02:23:13;1.98;;;1.30;;
25639;SDS011;13497;48.322;16.204;2023-06-26T02:25:39;2.80;;;1.27;;
25639;SDS011;13497;48.322;16.204;2023-06-26T02:28:05;2.00;;;1.27;;
25639;SDS011;13497;48.322;16.204;2023-06-26T02:30:30;2.07;;;1.50;;
25639;SDS011;13497;48.322;16.204;2023-06-26T02:32:56;1.60;;;1.13;;
25639;SDS011;13497;48.322;16.204;2023-06-26T02:35:22;1.77;;;1.30;;
25639;SDS011;13497;48.322;16.204;2023-06-26T02:37:47;2.83;;;1.70;;
25639;SDS011;13497;48.322;16.204;2023-06-26T02:40:13;1.87;;;1.47;;
25639;SDS011;13497;48.322;16.204;2023-06-26T02:42:38;2.03;;;1.27;;
25639;SDS011;13497;48.322;16.204;2023-06-26T02:45:04;2.70;;;1.53;;
25639;SDS011;13497;48.322;16.204;2023-06-26T02:47:30;2.78;;;2.08;;
25639;SDS011;13497;48.322;16.204;2023-06-26T02:49:56;1.77;;;1.60;;
25639;SDS011;13497;48.322;16.204;2023-06-26T02:52:21;2.47;;;1.40;;
25639;SDS011;13497;48.322;16.204;2023-06-26T02:54:47;1.20;;;1.03;;
25639;SDS011;13497;48.322;16.204;2023-06-26T02:57:13;3.73;;;1.17;;
25639;SDS011;13497;48.322;16.204;2023-06-26T02:59:39;2.17;;;1.48;;
25639;SDS011;13497;48.322;16.204;2023-06-26T03:02:05;2.25;;;1.52;;
25639;SDS011;13497;48.322;16.204;2023-06-26T03:04:30;1.57;;;1.47;;
25639;SDS011;13497;48.322;16.204;2023-06-26T03:06:56;2.83;;;1.30;;
25639;SDS011;13497;48.322;16.204;2023-06-26T03:09:22;3.17;;;1.48;;
25639;SDS011;13497;48.322;16.204;2023-06-26T03:11:48;1.60;;;1.43;;
25639;SDS011;13497;48.322;16.204;2023-06-26T03:14:13;1.80;;;1.50;;
25639;SDS011;13497;48.322;16.204;2023-06-26T03:16:39;2.25;;;1.77;;
25639;SDS011;13497;48.322;16.204;2023-06-26T03:19:06;1.88;;;1.60;;
25639;SDS011;13497;48.322;16.204;2023-06-26T03:21:32;1.83;;;1.40;;
25639;SDS011;13497;48.322;16.204;2023-06-26T03:23:58;2.65;;;1.95;;
25639;SDS011;13497;48.322;16.204;2023-06-26T03:26:23;1.57;;;1.47;;
25639;SDS011;13497;48.322;16.204;2023-06-26T03:28:52;2.17;;;1.60;;
25639;SDS011;13497;48.322;16.204;2023-06-26T03:31:18;4.18;;;1.85;;
25639;SDS011;13497;48.322;16.204;2023-06-26T03:33:44;2.45;;;1.55;;
25639;SDS011;13497;48.322;16.204;2023-06-26T03:36:10;3.97;;;1.67;;
25639;SDS011;13497;48.322;16.204;2023-06-26T03:38:36;1.73;;;1.53;;
25639;SDS011;13497;48.322;16.204;2023-06-26T03:41:02;1.10;;;1.00;;
25639;SDS011;13497;48.322;16.204;2023-06-26T03:43:27;4.88;;;2.40;;
25639;SDS011;13497;48.322;16.204;2023-06-26T03:45:53;3.30;;;1.43;;
25639;SDS011;13497;48.322;16.204;2023-06-26T03:48:19;2.30;;;1.43;;
25639;SDS011;13497;48.322;16.204;2023-06-26T03:50:45;1.23;;;1.13;;
25639;SDS011;13497;48.322;16.204;2023-06-26T03:53:11;3.22;;;1.65;;
25639;SDS011;13497;48.322;16.204;2023-06-26T03:55:37;1.50;;;1.30;;
25639;SDS011;13497;48.322;16.204;2023-06-26T04:00:29;2.65;;;1.45;;
25639;SDS011;13497;48.322;16.204;2023-06-26T04:02:55;1.30;;;1.20;;
25639;SDS011;13497;48.322;16.204;2023-06-26T04:05:20;2.28;;;1.45;;
25639;SDS011;13497;48.322;16.204;2023-06-26T04:07:51;2.77;;;1.60;;
25639;SDS011;13497;48.322;16.204;2023-06-26T04:10:17;1.70;;;1.50;;
25639;SDS011;13497;48.322;16.204;2023-06-26T04:12:43;6.03;;;1.85;;
25639;SDS011;13497;48.322;16.204;2023-06-26T04:15:09;2.55;;;1.40;;
25639;SDS011;13497;48.322;16.204;2023-06-26T04:17:35;1.20;;;1.10;;
25639;SDS011;13497;48.322;16.204;2023-06-26T04:20:00;1.48;;;1.35;;
25639;SDS011;13497;48.322;16.204;2023-06-26T04:24:52;2.33;;;1.63;;
25639;SDS011;13497;48.322;16.204;2023-06-26T04:27:18;2.47;;;1.80;;
25639;SDS011;13497;48.322;16.204;2023-06-26T04:29:44;2.78;;;1.60;;
25639;SDS011;13497;48.322;16.204;2023-06-26T04:32:09;5.80;;;1.27;;
25639;SDS011;13497;48.322;16.204;2023-06-26T04:34:35;1.75;;;1.50;;
25639;SDS011;13497;48.322;16.204;2023-06-26T04:37:06;1.60;;;1.50;;
25639;SDS011;13497;48.322;16.204;2023-06-26T04:39:31;2.67;;;1.88;;
25639;SDS011;13497;48.322;16.204;2023-06-26T04:41:57;6.22;;;4.72;;
25639;SDS011;13497;48.322;16.204;2023-06-26T04:46:49;3.28;;;2.40;;
25639;SDS011;13497;48.322;16.204;2023-06-26T04:49:16;5.10;;;2.28;;
25639;SDS011;13497;48.322;16.204;2023-06-26T04:54:08;2.42;;;1.95;;
25639;SDS011;13497;48.322;16.204;2023-06-26T04:56:35;2.28;;;1.98;;
25639;SDS011;13497;48.322;16.204;2023-06-26T05:01:27;3.92;;;2.40;;
25639;SDS011;13497;48.322;16.204;2023-06-26T05:03:54;5.07;;;2.72;;
25639;SDS011;13497;48.322;16.204;2023-06-26T05:06:21;2.28;;;2.05;;
25639;SDS011;13497;48.322;16.204;2023-06-26T05:08:47;4.20;;;2.88;;
25639;SDS011;13497;48.322;16.204;2023-06-26T05:13:38;2.47;;;2.28;;
25639;SDS011;13497;48.322;16.204;2023-06-26T05:16:05;3.17;;;2.20;;
25639;SDS011;13497;48.322;16.204;2023-06-26T05:18:33;6.90;;;2.60;;
25639;SDS011;13497;48.322;16.204;2023-06-26T05:23:24;3.80;;;2.55;;
25639;SDS011;13497;48.322;16.204;2023-06-26T05:25:51;2.50;;;2.20;;
25639;SDS011;13497;48.322;16.204;2023-06-26T05:30:43;3.72;;;2.60;;
25639;SDS011;13497;48.322;16.204;2023-06-26T05:33:10;2.85;;;2.38;;
25639;SDS011;13497;48.322;16.204;2023-06-26T05:35:37;2.50;;;2.30;;
25639;SDS011;13497;48.322;16.204;2023-06-26T05:38:04;2.63;;;2.38;;
25639;SDS011;13497;48.322;16.204;2023-06-26T05:40:30;5.20;;;2.55;;
25639;SDS011;13497;48.322;16.204;2023-06-26T05:42:56;3.70;;;2.70;;
25639;SDS011;13497;48.322;16.204;2023-06-26T05:45:22;3.25;;;2.72;;
25639;SDS011;13497;48.322;16.204;2023-06-26T05:47:47;3.38;;;3.08;;
25639;SDS011;13497;48.322;16.204;2023-06-26T05:50:15;3.00;;;2.70;;
25639;SDS011;13497;48.322;16.204;2023-06-26T05:52:42;4.32;;;2.95;;
25639;SDS011;13497;48.322;16.204;2023-06-26T05:55:09;3.15;;;2.85;;
25639;SDS011;13497;48.322;16.204;2023-06-26T05:57:35;4.05;;;2.90;;
25639;SDS011;13497;48.322;16.204;2023-06-26T06:00:02;2.90;;;2.60;;
25639;SDS011;13497;48.322;16.204;2023-06-26T06:02:35;3.20;;;2.78;;
25639;SDS011;13497;48.322;16.204;2023-06-26T06:05:03;3.75;;;2.97;;
25639;SDS011;13497;48.322;16.204;2023-06-26T06:07:31;3.40;;;2.47;;
25639;SDS011;13497;48.322;16.204;2023-06-26T06:10:00;3.17;;;2.63;;
25639;SDS011;13497;48.322;16.204;2023-06-26T06:12:27;2.83;;;2.53;;
25639;SDS011;13497;48.322;16.204;2023-06-26T06:14:53;2.83;;;2.63;;
25639;SDS011;13497;48.322;16.204;2023-06-26T06:17:20;4.53;;;3.05;;
25639;SDS011;13497;48.322;16.204;2023-06-26T06:19:46;3.67;;;3.28;;
25639;SDS011;13497;48.322;16.204;2023-06-26T06:22:11;2.65;;;2.45;;
25639;SDS011;13497;48.322;16.204;2023-06-26T06:24:37;2.80;;;2.53;;
25639;SDS011;13497;48.322;16.204;2023-06-26T06:27:03;3.88;;;3.33;;
25639;SDS011;13497;48.322;16.204;2023-06-26T06:29:29;4.35;;;3.20;;
25639;SDS011;13497;48.322;16.204;2023-06-26T06:31:54;3.42;;;3.00;;
25639;SDS011;13497;48.322;16.204;2023-06-26T06:34:21;6.55;;;2.88;;
25639;SDS011;13497;48.322;16.204;2023-06-26T06:36:48;10.35;;;3.53;;
25639;SDS011;13497;48.322;16.204;2023-06-26T06:39:15;14.93;;;3.08;;
25639;SDS011;13497;48.322;16.204;2023-06-26T06:41:40;3.65;;;2.60;;
25639;SDS011;13497;48.322;16.204;2023-06-26T06:44:06;3.35;;;2.78;;
25639;SDS011;13497;48.322;16.204;2023-06-26T06:46:32;2.70;;;2.50;;
25639;SDS011;13497;48.322;16.204;2023-06-26T06:48:57;4.55;;;2.90;;
25639;SDS011;13497;48.322;16.204;2023-06-26T06:51:23;3.75;;;2.80;;
25639;SDS011;13497;48.322;16.204;2023-06-26T06:56:14;3.70;;;2.80;;
25639;SDS011;13497;48.322;16.204;2023-06-26T07:01:07;3.22;;;2.92;;
25639;SDS011;13497;48.322;16.204;2023-06-26T07:03:34;5.53;;;2.50;;
25639;SDS011;13497;48.322;16.204;2023-06-26T07:06:00;5.60;;;3.20;;
25639;SDS011;13497;48.322;16.204;2023-06-26T07:10:51;3.03;;;1.98;;
25639;SDS011;13497;48.322;16.204;2023-06-26T07:13:17;3.00;;;2.47;;
25639;SDS011;13497;48.322;16.204;2023-06-26T07:15:42;5.03;;;2.47;;
25639;SDS011;13497;48.322;16.204;2023-06-26T07:20:34;3.83;;;2.83;;
25639;SDS011;13497;48.322;16.204;2023-06-26T07:23:00;3.50;;;1.95;;
25639;SDS011;13497;48.322;16.204;2023-06-26T07:25:25;2.25;;;1.90;;
25639;SDS011;13497;48.322;16.204;2023-06-26T07:27:51;2.67;;;2.30;;
25639;SDS011;13497;48.322;16.204;2023-06-26T07:30:17;2.67;;;1.90;;
25639;SDS011;13497;48.322;16.204;2023-06-26T07:32:44;2.95;;;2.13;;
25639;SDS011;13497;48.322;16.204;2023-06-26T07:35:10;2.20;;;1.73;;
25639;SDS011;13497;48.322;16.204;2023-06-26T07:37:36;2.67;;;1.70;;
25639;SDS011;13497;48.322;16.204;2023-06-26T07:40:02;2.53;;;1.95;;
25639;SDS011;13497;48.322;16.204;2023-06-26T07:42:28;2.53;;;1.85;;
25639;SDS011;13497;48.322;16.204;2023-06-26T07:44:54;3.63;;;2.22;;
25639;SDS011;13497;48.322;16.204;2023-06-26T07:47:20;2.88;;;2.15;;
25639;SDS011;13497;48.322;16.204;2023-06-26T07:49:45;2.53;;;2.00;;
25639;SDS011;13497;48.322;16.204;2023-06-26T07:52:11;2.70;;;1.90;;
25639;SDS011;13497;48.322;16.204;2023-06-26T07:54:37;6.93;;;1.98;;
25639;SDS011;13497;48.322;16.204;2023-06-26T07:57:03;10.20;;;2.00;;
25639;SDS011;13497;48.322;16.204;2023-06-26T07:59:33;3.10;;;1.98;;
25639;SDS011;13497;48.322;16.204;2023-06-26T08:04:26;2.30;;;1.80;;
25639;SDS011;13497;48.322;16.204;2023-06-26T08:06:54;1.90;;;1.67;;
25639;SDS011;13497;48.322;16.204;2023-06-26T08:09:21;2.35;;;2.10;;
25639;SDS011;13497;48.322;16.204;2023-06-26T08:11:48;1.63;;;1.52;;
25639;SDS011;13497;48.322;16.204;2023-06-26T08:14:15;2.85;;;2.00;;
25639;SDS011;13497;48.322;16.204;2023-06-26T08:19:07;2.00;;;1.60;;
25639;SDS011;13497;48.322;16.204;2023-06-26T08:23:58;1.98;;;1.35;;
25639;SDS011;13497;48.322;16.204;2023-06-26T08:26:27;1.80;;;1.55;;
25639;SDS011;13497;48.322;16.204;2023-06-26T08:28:53;1.60;;;1.50;;
25639;SDS011;13497;48.322;16.204;2023-06-26T08:31:19;2.50;;;1.85;;
25639;SDS011;13497;48.322;16.204;2023-06-26T08:33:45;2.58;;;2.03;;
25639;SDS011;13497;48.322;16.204;2023-06-26T08:36:11;2.88;;;1.92;;
25639;SDS011;13497;48.322;16.204;2023-06-26T08:38:37;1.92;;;1.70;;
25639;SDS011;13497;48.322;16.204;2023-06-26T08:41:06;1.95;;;1.77;;
25639;SDS011;13497;48.322;16.204;2023-06-26T08:43:32;1.50;;;1.30;;
25639;SDS011;13497;48.322;16.204;2023-06-26T08:45:59;1.42;;;1.33;;
25639;SDS011;13497;48.322;16.204;2023-06-26T08:48:25;1.40;;;1.10;;
25639;SDS011;13497;48.322;16.204;2023-06-26T08:50:52;1.75;;;1.60;;
25639;SDS011;13497;48.322;16.204;2023-06-26T08:53:29;2.15;;;1.58;;
25639;SDS011;13497;48.322;16.204;2023-06-26T08:56:02;1.63;;;1.52;;
25639;SDS011;13497;48.322;16.204;2023-06-26T08:58:29;1.60;;;1.50;;
25639;SDS011;13497;48.322;16.204;2023-06-26T09:00:55;1.30;;;1.20;;
25639;SDS011;13497;48.322;16.204;2023-06-26T09:03:21;3.42;;;1.40;;
25639;SDS011;13497;48.322;16.204;2023-06-26T09:05:50;4.88;;;2.15;;
25639;SDS011;13497;48.322;16.204;2023-06-26T09:08:15;1.90;;;1.60;;
25639;SDS011;13497;48.322;16.204;2023-06-26T09:10:41;2.60;;;1.95;;
25639;SDS011;13497;48.322;16.204;2023-06-26T09:13:07;1.98;;;1.75;;
25639;SDS011;13497;48.322;16.204;2023-06-26T09:18:04;2.75;;;1.40;;
25639;SDS011;13497;48.322;16.204;2023-06-26T09:20:30;6.10;;;1.80;;
25639;SDS011;13497;48.322;16.204;2023-06-26T09:22:58;1.15;;;1.05;;
25639;SDS011;13497;48.322;16.204;2023-06-26T09:25:25;2.72;;;1.52;;
25639;SDS011;13497;48.322;16.204;2023-06-26T09:27:52;2.13;;;1.63;;
25639;SDS011;13497;48.322;16.204;2023-06-26T09:30:18;4.03;;;2.92;;
25639;SDS011;13497;48.322;16.204;2023-06-26T09:32:44;1.58;;;1.48;;
25639;SDS011;13497;48.322;16.204;2023-06-26T09:35:10;1.52;;;1.27;;
25639;SDS011;13497;48.322;16.204;2023-06-26T09:37:35;1.70;;;1.60;;
25639;SDS011;13497;48.322;16.204;2023-06-26T09:40:01;1.73;;;1.48;;
25639;SDS011;13497;48.322;16.204;2023-06-26T09:42:28;1.70;;;1.58;;
25639;SDS011;13497;48.322;16.204;2023-06-26T09:44:54;1.90;;;1.60;;
25639;SDS011;13497;48.322;16.204;2023-06-26T09:47:20;1.52;;;1.42;;
25639;SDS011;13497;48.322;16.204;2023-06-26T09:49:47;1.65;;;1.55;;
25639;SDS011;13497;48.322;16.204;2023-06-26T09:52:16;1.70;;;1.60;;
25639;SDS011;13497;48.322;16.204;2023-06-26T09:54:45;1.83;;;1.63;;
25639;SDS011;13497;48.322;16.204;2023-06-26T09:57:12;1.92;;;1.45;;
25639;SDS011;13497;48.322;16.204;2023-06-26T09:59:39;1.75;;;1.63;;
25639;SDS011;13497;48.322;16.204;2023-06-26T10:02:05;2.05;;;1.60;;
25639;SDS011;13497;48.322;16.204;2023-06-26T10:04:31;1.83;;;1.40;;
25639;SDS011;13497;48.322;16.204;2023-06-26T10:06:58;1.80;;;1.48;;
25639;SDS011;13497;48.322;16.204;2023-06-26T10:09:26;2.30;;;1.48;;
25639;SDS011;13497;48.322;16.204;2023-06-26T10:11:56;5.00;;;2.13;;
25639;SDS011;13497;48.322;16.204;2023-06-26T10:14:26;2.15;;;1.52;;
25639;SDS011;13497;48.322;16.204;2023-06-26T10:16:56;2.03;;;1.83;;
25639;SDS011;13497;48.322;16.204;2023-06-26T10:19:26;2.35;;;1.85;;
25639;SDS011;13497;48.322;16.204;2023-06-26T10:21:53;2.33;;;1.52;;
25639;SDS011;13497;48.322;16.204;2023-06-26T10:24:20;1.70;;;1.60;;
25639;SDS011;13497;48.322;16.204;2023-06-26T10:26:49;1.98;;;1.77;;
25639;SDS011;13497;48.322;16.204;2023-06-26T10:29:20;1.33;;;1.23;;
25639;SDS011;13497;48.322;16.204;2023-06-26T10:31:50;2.05;;;1.30;;
25639;SDS011;13497;48.322;16.204;2023-06-26T10:34:19;1.70;;;1.48;;
25639;SDS011;13497;48.322;16.204;2023-06-26T10:36:45;1.25;;;1.10;;
25639;SDS011;13497;48.322;16.204;2023-06-26T10:39:13;2.05;;;1.40;;
25639;SDS011;13497;48.322;16.204;2023-06-26T10:41:39;1.55;;;1.45;;
25639;SDS011;13497;48.322;16.204;2023-06-26T10:44:08;1.40;;;1.30;;
25639;SDS011;13497;48.322;16.204;2023-06-26T10:46:51;1.38;;;1.23;;
25639;SDS011;13497;48.322;16.204;2023-06-26T10:51:50;1.70;;;1.38;;
25639;SDS011;13497;48.322;16.204;2023-06-26T10:54:17;1.17;;;1.08;;
25639;SDS011;13497;48.322;16.204;2023-06-26T10:56:47;1.25;;;1.10;;
25639;SDS011;13497;48.322;16.204;2023-06-26T10:59:21;1.33;;;1.23;;
25639;SDS011;13497;48.322;16.204;2023-06-26T11:01:56;1.30;;;1.20;;
25639;SDS011;13497;48.322;16.204;2023-06-26T11:12:40;1.50;;;1.20;;
25639;SDS011;13497;48.322;16.204;2023-06-26T11:15:11;4.57;;;1.55;;
25639;SDS011;13497;48.322;16.204;2023-06-26T11:17:38;1.38;;;1.27;;
25639;SDS011;13497;48.322;16.204;2023-06-26T11:20:05;2.38;;;1.40;;
25639;SDS011;13497;48.322;16.204;2023-06-26T11:22:34;1.20;;;1.08;;
25639;SDS011;13497;48.322;16.204;2023-06-26T11:25:01;1.52;;;1.15;;
25639;SDS011;13497;48.322;16.204;2023-06-26T11:30:04;1.13;;;1.03;;
25639;SDS011;13497;48.322;16.204;2023-06-26T11:32:31;1.27;;;1.17;;
25639;SDS011;13497;48.322;16.204;2023-06-26T11:34:58;1.55;;;1.45;;
25639;SDS011;13497;48.322;16.204;2023-06-26T11:37:24;1.42;;;1.20;;
25639;SDS011;13497;48.322;16.204;2023-06-26T11:39:50;1.20;;;1.10;;
25639;SDS011;13497;48.322;16.204;2023-06-26T11:42:16;9.02;;;1.27;;
25639;SDS011;13497;48.322;16.204;2023-06-26T11:44:45;1.38;;;1.27;;
25639;SDS011;13497;48.322;16.204;2023-06-26T11:47:15;1.35;;;1.25;;
25639;SDS011;13497;48.322;16.204;2023-06-26T11:49:47;0.98;;;0.95;;
25639;SDS011;13497;48.322;16.204;2023-06-26T11:52:14;1.27;;;1.17;;
25639;SDS011;13497;48.322;16.204;2023-06-26T11:54:41;1.50;;;1.40;;
25639;SDS011;13497;48.322;16.204;2023-06-26T11:57:08;3.10;;;1.60;;
25639;SDS011;13497;48.322;16.204;2023-06-26T11:59:39;1.83;;;1.63;;
25639;SDS011;13497;48.322;16.204;2023-06-26T12:04:32;1.95;;;1.58;;
25639;SDS011;13497;48.322;16.204;2023-06-26T12:07:00;3.58;;;1.33;;
25639;SDS011;13497;48.322;16.204;2023-06-26T12:09:30;1.63;;;1.52;;
25639;SDS011;13497;48.322;16.204;2023-06-26T12:11:58;1.85;;;1.65;;
25639;SDS011;13497;48.322;16.204;2023-06-26T12:14:25;1.50;;;1.40;;
25639;SDS011;13497;48.322;16.204;2023-06-26T12:16:53;1.15;;;1.05;;
25639;SDS011;13497;48.322;16.204;2023-06-26T12:19:24;1.42;;;1.33;;
25639;SDS011;13497;48.322;16.204;2023-06-26T12:21:53;2.72;;;2.25;;
25639;SDS011;13497;48.322;16.204;2023-06-26T12:24:21;2.28;;;1.60;;
25639;SDS011;13497;48.322;16.204;2023-06-26T12:26:52;1.42;;;1.33;;
25639;SDS011;13497;48.322;16.204;2023-06-26T12:29:20;1.55;;;1.23;;
25639;SDS011;13497;48.322;16.204;2023-06-26T12:31:50;1.33;;;1.20;;
25639;SDS011;13497;48.322;16.204;2023-06-26T12:34:18;1.52;;;1.35;;
25639;SDS011;13497;48.322;16.204;2023-06-26T12:37:01;1.30;;;1.20;;
25639;SDS011;13497;48.322;16.204;2023-06-26T12:39:28;2.05;;;1.50;;
25639;SDS011;13497;48.322;16.204;2023-06-26T12:44:28;1.63;;;1.42;;
25639;SDS011;13497;48.322;16.204;2023-06-26T12:46:58;1.92;;;1.40;;
25639;SDS011;13497;48.322;16.204;2023-06-26T12:49:35;1.70;;;1.60;;
25639;SDS011;13497;48.322;16.204;2023-06-26T12:52:05;1.33;;;1.20;;
25639;SDS011;13497;48.322;16.204;2023-06-26T12:54:35;1.63;;;1.52;;
25639;SDS011;13497;48.322;16.204;2023-06-26T12:57:03;1.52;;;1.40;;
25639;SDS011;13497;48.322;16.204;2023-06-26T12:59:30;1.90;;;1.40;;
25639;SDS011;13497;48.322;16.204;2023-06-26T13:01:56;2.10;;;1.52;;
25639;SDS011;13497;48.322;16.204;2023-06-26T13:04:22;2.05;;;1.85;;
25639;SDS011;13497;48.322;16.204;2023-06-26T13:06:48;1.50;;;1.40;;
25639;SDS011;13497;48.322;16.204;2023-06-26T13:09:14;2.13;;;1.60;;
25639;SDS011;13497;48.322;16.204;2023-06-26T13:11:41;1.98;;;1.65;;
25639;SDS011;13497;48.322;16.204;2023-06-26T13:14:07;2.65;;;1.88;;
25639;SDS011;13497;48.322;16.204;2023-06-26T13:16:33;1.45;;;1.35;;
25639;SDS011;13497;48.322;16.204;2023-06-26T13:18:59;1.52;;;1.42;;
25639;SDS011;13497;48.322;16.204;2023-06-26T13:21:26;1.50;;;1.40;;
25639;SDS011;13497;48.322;16.204;2023-06-26T13:23:52;1.50;;;1.40;;
25639;SDS011;13497;48.322;16.204;2023-06-26T13:26:19;3.15;;;1.60;;
25639;SDS011;13497;48.322;16.204;2023-06-26T13:28:46;2.20;;;1.33;;
25639;SDS011;13497;48.322;16.204;2023-06-26T13:31:13;1.95;;;1.60;;
25639;SDS011;13497;48.322;16.204;2023-06-26T13:33:39;1.50;;;1.40;;
25639;SDS011;13497;48.322;16.204;2023-06-26T13:36:04;2.38;;;1.77;;
25639;SDS011;13497;48.322;16.204;2023-06-26T13:38:33;1.42;;;1.33;;
25639;SDS011;13497;48.322;16.204;2023-06-26T13:40:59;1.70;;;1.60;;
25639;SDS011;13497;48.322;16.204;2023-06-26T13:43:25;2.00;;;1.85;;
25639;SDS011;13497;48.322;16.204;2023-06-26T13:45:51;2.03;;;1.83;;
25639;SDS011;13497;48.322;16.204;2023-06-26T13:48:17;1.80;;;1.65;;
25639;SDS011;13497;48.322;16.204;2023-06-26T13:50:43;1.75;;;1.42;;
25639;SDS011;13497;48.322;16.204;2023-06-26T13:53:10;1.50;;;1.40;;
25639;SDS011;13497;48.322;16.204;2023-06-26T13:55:35;2.05;;;1.85;;
25639;SDS011;13497;48.322;16.204;2023-06-26T13:58:03;3.03;;;2.10;;
25639;SDS011;13497;48.322;16.204;2023-06-26T14:00:36;2.17;;;1.60;;
25639;SDS011;13497;48.322;16.204;2023-06-26T14:03:04;2.47;;;1.52;;
25639;SDS011;13497;48.322;16.204;2023-06-26T14:05:32;1.70;;;1.60;;
25639;SDS011;13497;48.322;16.204;2023-06-26T14:07:58;3.33;;;2.00;;
25639;SDS011;13497;48.322;16.204;2023-06-26T14:10:23;1.98;;;1.60;;
25639;SDS011;13497;48.322;16.204;2023-06-26T14:12:49;2.05;;;1.85;;
25639;SDS011;13497;48.322;16.204;2023-06-26T14:15:15;2.47;;;2.25;;
25639;SDS011;13497;48.322;16.204;2023-06-26T14:17:41;2.40;;;2.05;;
25639;SDS011;13497;48.322;16.204;2023-06-26T14:20:07;2.38;;;1.90;;
25639;SDS011;13497;48.322;16.204;2023-06-26T14:22:40;2.83;;;2.22;;
25639;SDS011;13497;48.322;16.204;2023-06-26T14:25:07;2.53;;;2.00;;
25639;SDS011;13497;48.322;16.204;2023-06-26T14:27:33;2.28;;;1.70;;
25639;SDS011;13497;48.322;16.204;2023-06-26T14:29:59;2.20;;;1.88;;
25639;SDS011;13497;48.322;16.204;2023-06-26T14:32:25;1.58;;;1.48;;
25639;SDS011;13497;48.322;16.204;2023-06-26T14:34:51;3.50;;;2.00;;
25639;SDS011;13497;48.322;16.204;2023-06-26T14:37:16;2.05;;;1.80;;
25639;SDS011;13497;48.322;16.204;2023-06-26T14:39:43;4.40;;;1.90;;
25639;SDS011;13497;48.322;16.204;2023-06-26T14:42:09;1.95;;;1.75;;
25639;SDS011;13497;48.322;16.204;2023-06-26T14:44:36;2.50;;;2.20;;
25639;SDS011;13497;48.322;16.204;2023-06-26T14:47:02;6.07;;;2.03;;
25639;SDS011;13497;48.322;16.204;2023-06-26T14:49:29;2.75;;;2.03;;
25639;SDS011;13497;48.322;16.204;2023-06-26T14:51:55;2.55;;;2.35;;
25639;SDS011;13497;48.322;16.204;2023-06-26T14:54:21;2.00;;;1.75;;
25639;SDS011;13497;48.322;16.204;2023-06-26T14:56:46;2.28;;;2.03;;
25639;SDS011;13497;48.322;16.204;2023-06-26T14:59:12;2.72;;;2.25;;
25639;SDS011;13497;48.322;16.204;2023-06-26T15:01:38;2.60;;;2.20;;
25639;SDS011;13497;48.322;16.204;2023-06-26T15:04:05;2.38;;;2.17;;
25639;SDS011;13497;48.322;16.204;2023-06-26T15:06:31;3.58;;;2.53;;
25639;SDS011;13497;48.322;16.204;2023-06-26T15:08:57;2.67;;;2.05;;
25639;SDS011;13497;48.322;16.204;2023-06-26T15:11:23;2.42;;;2.22;;
25639;SDS011;13497;48.322;16.204;2023-06-26T15:13:50;2.42;;;2.00;;
25639;SDS011;13497;48.322;16.204;2023-06-26T15:16:15;2.15;;;1.95;;
25639;SDS011;13497;48.322;16.204;2023-06-26T15:18:41;2.30;;;1.95;;
25639;SDS011;13497;48.322;16.204;2023-06-26T15:21:07;2.40;;;1.90;;
25639;SDS011;13497;48.322;16.204;2023-06-26T15:23:33;2.90;;;1.95;;
25639;SDS011;13497;48.322;16.204;2023-06-26T15:25:59;2.30;;;2.10;;
25639;SDS011;13497;48.322;16.204;2023-06-26T15:28:25;2.35;;;2.15;;
25639;SDS011;13497;48.322;16.204;2023-06-26T15:30:52;2.67;;;2.05;;